sensor_id;sensor_type;location;lat;lon;timestamp;pressure;altitude;pressure_sealevel;temperature;humidity
54306;BME280;66145;45.188;5.712;2023-05-08T00:02:12;99543.50;;;18.14;60.89
54306;BME280;66145;45.188;5.712;2023-05-08T00:04:37;99511.03;;;17.93;61.08
54306;BME280;66145;45.188;5.712;2023-05-08T00:07:03;99538.13;;;18.08;61.14
54306;BME280;66145;45.188;5.712;2023-05-08T00:09:28;99563.78;;;18.27;60.99
54306;BME280;66145;45.188;5.712;2023-05-08T00:11:53;99519.97;;;17.99;60.86
54306;BME280;66145;45.188;5.712;2023-05-08T00:14:19;99528.91;;;18.04;60.96
54306;BME280;66145;45.188;5.712;2023-05-08T00:16:44;99519.56;;;18.05;60.81
54306;BME280;66145;45.188;5.712;2023-05-08T00:19:10;99520.38;;;18.06;60.73
54306;BME280;66145;45.188;5.712;2023-05-08T00:21:37;99554.16;;;18.29;60.95
54306;BME280;66145;45.188;5.712;2023-05-08T00:24:03;99521.72;;;18.08;60.66
54306;BME280;66145;45.188;5.712;2023-05-08T00:26:28;99554.47;;;18.28;60.76
54306;BME280;66145;45.188;5.712;2023-05-08T00:28:53;99525.94;;;18.15;60.73
54306;BME280;66145;45.188;5.712;2023-05-08T00:31:19;99555.28;;;18.28;60.69
54306;BME280;66145;45.188;5.712;2023-05-08T00:33:44;99551.53;;;18.24;60.77
54306;BME280;66145;45.188;5.712;2023-05-08T00:36:10;99518.25;;;18.03;60.83
54306;BME280;66145;45.188;5.712;2023-05-08T00:38:36;99481.09;;;17.83;60.79
54306;BME280;66145;45.188;5.712;2023-05-08T00:41:02;99529.19;;;18.17;60.72
54306;BME280;66145;45.188;5.712;2023-05-08T00:43:28;99514.09;;;18.05;60.91
54306;BME280;66145;45.188;5.712;2023-05-08T00:45:54;99539.16;;;18.27;61.04
54306;BME280;66145;45.188;5.712;2023-05-08T00:48:21;99512.16;;;18.06;60.76
54306;BME280;66145;45.188;5.712;2023-05-08T00:50:49;99515.00;;;18.15;60.98
54306;BME280;66145;45.188;5.712;2023-05-08T00:53:15;99532.97;;;18.21;60.70
54306;BME280;66145;45.188;5.712;2023-05-08T00:55:42;99513.59;;;18.03;60.79
54306;BME280;66145;45.188;5.712;2023-05-08T00:58:08;99515.13;;;18.09;60.72
54306;BME280;66145;45.188;5.712;2023-05-08T01:00:33;99517.53;;;18.11;60.84
54306;BME280;66145;45.188;5.712;2023-05-08T01:02:59;99538.63;;;18.24;60.77
54306;BME280;66145;45.188;5.712;2023-05-08T01:05:28;99534.78;;;18.26;60.73
54306;BME280;66145;45.188;5.712;2023-05-08T01:07:54;99535.19;;;18.19;60.71
54306;BME280;66145;45.188;5.712;2023-05-08T01:10:20;99519.88;;;18.18;60.76
54306;BME280;66145;45.188;5.712;2023-05-08T01:13:06;99539.47;;;18.25;61.14
54306;BME280;66145;45.188;5.712;2023-05-08T01:15:40;99522.72;;;18.13;60.44
54306;BME280;66145;45.188;5.712;2023-05-08T01:18:16;99536.81;;;18.20;60.58
54306;BME280;66145;45.188;5.712;2023-05-08T01:34:23;99539.75;;;18.23;60.41
54306;BME280;66145;45.188;5.712;2023-05-08T01:36:54;99498.59;;;18.01;60.46
54306;BME280;66145;45.188;5.712;2023-05-08T01:39:33;99541.69;;;18.23;60.49
54306;BME280;66145;45.188;5.712;2023-05-08T01:44:44;99456.97;;;17.71;60.29
54306;BME280;66145;45.188;5.712;2023-05-08T01:47:13;99504.88;;;18.01;60.43
54306;BME280;66145;45.188;5.712;2023-05-08T01:49:48;99509.53;;;18.01;60.45
54306;BME280;66145;45.188;5.712;2023-05-08T01:52:19;99532.97;;;18.21;60.24
54306;BME280;66145;45.188;5.712;2023-05-08T01:54:57;99502.44;;;18.00;60.29
54306;BME280;66145;45.188;5.712;2023-05-08T01:57:25;99519.38;;;18.16;60.40
54306;BME280;66145;45.188;5.712;2023-05-08T01:59:55;99521.31;;;18.15;60.23
54306;BME280;66145;45.188;5.712;2023-05-08T02:02:21;99484.97;;;17.96;60.16
54306;BME280;66145;45.188;5.712;2023-05-08T02:04:48;99527.50;;;18.21;60.24
54306;BME280;66145;45.188;5.712;2023-05-08T02:07:15;99475.22;;;17.89;60.26
54306;BME280;66145;45.188;5.712;2023-05-08T02:09:42;99520.00;;;18.13;60.16
54306;BME280;66145;45.188;5.712;2023-05-08T02:12:09;99529.44;;;18.20;60.22
54306;BME280;66145;45.188;5.712;2023-05-08T02:14:38;99483.34;;;17.94;60.11
54306;BME280;66145;45.188;5.712;2023-05-08T02:17:06;99522.72;;;18.13;60.39
54306;BME280;66145;45.188;5.712;2023-05-08T02:19:34;99524.25;;;18.19;60.33
54306;BME280;66145;45.188;5.712;2023-05-08T02:22:02;99524.56;;;18.17;60.17
54306;BME280;66145;45.188;5.712;2023-05-08T02:24:29;99528.59;;;18.20;60.14
54306;BME280;66145;45.188;5.712;2023-05-08T02:26:57;99526.69;;;18.20;60.03
54306;BME280;66145;45.188;5.712;2023-05-08T02:29:23;99490.13;;;17.97;60.04
54306;BME280;66145;45.188;5.712;2023-05-08T02:31:50;99501.31;;;18.01;59.97
54306;BME280;66145;45.188;5.712;2023-05-08T02:34:17;99522.50;;;18.09;60.04
54306;BME280;66145;45.188;5.712;2023-05-08T02:36:44;99507.59;;;18.01;59.89
54306;BME280;66145;45.188;5.712;2023-05-08T02:39:10;99488.00;;;17.94;60.07
54306;BME280;66145;45.188;5.712;2023-05-08T02:41:39;99531.34;;;18.20;60.21
54306;BME280;66145;45.188;5.712;2023-05-08T02:44:06;99496.97;;;18.00;60.05
54306;BME280;66145;45.188;5.712;2023-05-08T02:46:55;99523.94;;;18.20;60.07
54306;BME280;66145;45.188;5.712;2023-05-08T02:49:31;99460.31;;;17.82;59.83
54306;BME280;66145;45.188;5.712;2023-05-08T02:55:14;99523.13;;;18.20;60.07
54306;BME280;66145;45.188;5.712;2023-05-08T02:58:43;99488.25;;;17.98;59.95
54306;BME280;66145;45.188;5.712;2023-05-08T03:00:42;99489.03;;;17.98;59.94
54306;BME280;66145;45.188;5.712;2023-05-08T03:03:25;99525.88;;;18.20;60.03
54306;BME280;66145;45.188;5.712;2023-05-08T03:05:53;99464.91;;;17.86;59.90
54306;BME280;66145;45.188;5.712;2023-05-08T03:08:26;99518.25;;;18.17;59.96
54306;BME280;66145;45.188;5.712;2023-05-08T03:10:56;99522.22;;;18.11;59.86
54306;BME280;66145;45.188;5.712;2023-05-08T03:13:24;99510.16;;;18.12;60.00
54306;BME280;66145;45.188;5.712;2023-05-08T03:15:55;99480.84;;;17.98;59.92
54306;BME280;66145;45.188;5.712;2023-05-08T03:18:25;99505.16;;;18.14;59.86
54306;BME280;66145;45.188;5.712;2023-05-08T03:20:54;99481.91;;;17.97;60.01
54306;BME280;66145;45.188;5.712;2023-05-08T03:23:23;99482.97;;;18.01;59.81
54306;BME280;66145;45.188;5.712;2023-05-08T03:25:51;99488.94;;;18.03;59.76
54306;BME280;66145;45.188;5.712;2023-05-08T03:28:18;99504.06;;;18.15;59.98
54306;BME280;66145;45.188;5.712;2023-05-08T03:30:44;99431.75;;;17.60;59.76
54306;BME280;66145;45.188;5.712;2023-05-08T03:33:11;99475.63;;;17.97;59.74
54306;BME280;66145;45.188;5.712;2023-05-08T03:35:38;99509.63;;;18.23;59.60
54306;BME280;66145;45.188;5.712;2023-05-08T03:38:05;99478.72;;;18.09;59.51
54306;BME280;66145;45.188;5.712;2023-05-08T03:40:32;99471.00;;;18.11;59.27
54306;BME280;66145;45.188;5.712;2023-05-08T03:43:01;99502.34;;;18.33;59.45
54306;BME280;66145;45.188;5.712;2023-05-08T03:45:27;99492.09;;;18.24;59.38
54306;BME280;66145;45.188;5.712;2023-05-08T03:47:53;99504.56;;;18.31;59.32
54306;BME280;66145;45.188;5.712;2023-05-08T03:50:20;99491.09;;;18.20;58.97
54306;BME280;66145;45.188;5.712;2023-05-08T03:52:46;99520.59;;;18.37;59.26
54306;BME280;66145;45.188;5.712;2023-05-08T03:55:11;99518.16;;;18.36;59.36
54306;BME280;66145;45.188;5.712;2023-05-08T03:57:55;99458.66;;;18.00;59.29
54306;BME280;66145;45.188;5.712;2023-05-08T04:00:34;99483.78;;;18.16;59.20
54306;BME280;66145;45.188;5.712;2023-05-08T04:03:15;99498.91;;;18.27;59.13
54306;BME280;66145;45.188;5.712;2023-05-08T04:06:11;99521.72;;;18.36;59.43
54306;BME280;66145;45.188;5.712;2023-05-08T04:08:47;99485.72;;;18.15;59.32
54306;BME280;66145;45.188;5.712;2023-05-08T04:13:48;99478.63;;;18.14;59.33
54306;BME280;66145;45.188;5.712;2023-05-08T04:16:22;99477.69;;;18.05;59.33
54306;BME280;66145;45.188;5.712;2023-05-08T04:18:57;99489.56;;;18.14;59.30
54306;BME280;66145;45.188;5.712;2023-05-08T04:21:24;99525.03;;;18.33;59.36
54306;BME280;66145;45.188;5.712;2023-05-08T04:23:52;99520.19;;;18.30;59.42
54306;BME280;66145;45.188;5.712;2023-05-08T04:26:20;99527.50;;;18.35;59.30
54306;BME280;66145;45.188;5.712;2023-05-08T04:28:47;99515.00;;;18.29;59.32
54306;BME280;66145;45.188;5.712;2023-05-08T04:31:14;99507.13;;;18.27;59.29
54306;BME280;66145;45.188;5.712;2023-05-08T04:33:42;99515.00;;;18.29;59.28
54306;BME280;66145;45.188;5.712;2023-05-08T04:36:12;99483.59;;;18.12;59.35
54306;BME280;66145;45.188;5.712;2023-05-08T04:38:38;99436.84;;;17.81;59.16
54306;BME280;66145;45.188;5.712;2023-05-08T04:41:04;99509.84;;;18.27;59.11
54306;BME280;66145;45.188;5.712;2023-05-08T04:43:29;99515.34;;;18.27;59.20
54306;BME280;66145;45.188;5.712;2023-05-08T04:45:55;99502.06;;;18.20;59.21
54306;BME280;66145;45.188;5.712;2023-05-08T04:48:20;99463.63;;;17.98;59.38
54306;BME280;66145;45.188;5.712;2023-05-08T04:50:46;99505.59;;;18.21;59.35
54306;BME280;66145;45.188;5.712;2023-05-08T04:53:11;99522.13;;;18.30;59.26
54306;BME280;66145;45.188;5.712;2023-05-08T04:55:36;99492.72;;;18.07;59.28
54306;BME280;66145;45.188;5.712;2023-05-08T04:58:02;99523.22;;;18.29;59.19
54306;BME280;66145;45.188;5.712;2023-05-08T05:00:27;99497.88;;;18.09;59.36
54306;BME280;66145;45.188;5.712;2023-05-08T05:02:52;99508.41;;;18.16;59.34
54306;BME280;66145;45.188;5.712;2023-05-08T05:05:18;99478.09;;;17.98;59.27
54306;BME280;66145;45.188;5.712;2023-05-08T05:07:43;99497.34;;;18.07;59.32
54306;BME280;66145;45.188;5.712;2023-05-08T05:10:09;99526.88;;;18.24;59.44
54306;BME280;66145;45.188;5.712;2023-05-08T05:12:34;99527.91;;;18.28;59.56
54306;BME280;66145;45.188;5.712;2023-05-08T05:14:59;99530.75;;;18.23;59.17
54306;BME280;66145;45.188;5.712;2023-05-08T05:17:25;99522.00;;;18.21;59.11
54306;BME280;66145;45.188;5.712;2023-05-08T05:19:51;99526.38;;;18.22;59.26
54306;BME280;66145;45.188;5.712;2023-05-08T05:22:17;99533.75;;;18.21;59.41
54306;BME280;66145;45.188;5.712;2023-05-08T05:24:42;99442.09;;;17.63;59.13
54306;BME280;66145;45.188;5.712;2023-05-08T05:27:07;99531.25;;;18.25;59.28
54306;BME280;66145;45.188;5.712;2023-05-08T05:29:33;99528.28;;;18.21;59.30
54306;BME280;66145;45.188;5.712;2023-05-08T05:31:58;99536.22;;;18.23;59.28
54306;BME280;66145;45.188;5.712;2023-05-08T05:34:23;99495.41;;;17.93;59.32
54306;BME280;66145;45.188;5.712;2023-05-08T05:36:49;99549.59;;;18.24;59.30
54306;BME280;66145;45.188;5.712;2023-05-08T05:39:14;99516.41;;;17.98;59.67
54306;BME280;66145;45.188;5.712;2023-05-08T05:41:39;99552.31;;;18.24;59.23
54306;BME280;66145;45.188;5.712;2023-05-08T05:44:08;99512.56;;;17.99;59.28
54306;BME280;66145;45.188;5.712;2023-05-08T05:46:33;99525.03;;;18.05;59.35
54306;BME280;66145;45.188;5.712;2023-05-08T05:48:59;99557.28;;;18.22;59.29
54306;BME280;66145;45.188;5.712;2023-05-08T05:51:24;99556.19;;;18.23;59.33
54306;BME280;66145;45.188;5.712;2023-05-08T05:53:49;99495.81;;;17.87;59.22
54306;BME280;66145;45.188;5.712;2023-05-08T05:56:15;99558.03;;;18.28;59.13
54306;BME280;66145;45.188;5.712;2023-05-08T05:58:40;99556.50;;;18.36;59.19
54306;BME280;66145;45.188;5.712;2023-05-08T06:01:09;99559.13;;;18.41;58.80
54306;BME280;66145;45.188;5.712;2023-05-08T06:03:35;99548.56;;;18.34;58.56
54306;BME280;66145;45.188;5.712;2023-05-08T06:06:00;99560.94;;;18.46;58.54
54306;BME280;66145;45.188;5.712;2023-05-08T06:08:25;99530.94;;;18.27;58.55
54306;BME280;66145;45.188;5.712;2023-05-08T06:10:51;99550.19;;;18.35;58.23
54306;BME280;66145;45.188;5.712;2023-05-08T06:13:16;99561.25;;;18.44;58.44
54306;BME280;66145;45.188;5.712;2023-05-08T06:15:41;99537.25;;;18.27;58.30
54306;BME280;66145;45.188;5.712;2023-05-08T06:18:07;99528.00;;;18.23;58.50
54306;BME280;66145;45.188;5.712;2023-05-08T06:20:32;99536.13;;;18.28;58.35
54306;BME280;66145;45.188;5.712;2023-05-08T06:22:57;99471.69;;;17.89;58.73
54306;BME280;66145;45.188;5.712;2023-05-08T06:25:23;99536.41;;;18.27;58.54
54306;BME280;66145;45.188;5.712;2023-05-08T06:27:48;99561.34;;;18.39;58.58
54306;BME280;66145;45.188;5.712;2023-05-08T06:30:14;99532.03;;;18.26;58.56
54306;BME280;66145;45.188;5.712;2023-05-08T06:32:39;99563.69;;;18.46;58.52
54306;BME280;66145;45.188;5.712;2023-05-08T06:35:05;99570.31;;;18.45;58.76
54306;BME280;66145;45.188;5.712;2023-05-08T06:37:30;99499.59;;;18.05;58.64
54306;BME280;66145;45.188;5.712;2023-05-08T06:39:56;99535.81;;;18.30;58.67
54306;BME280;66145;45.188;5.712;2023-05-08T06:42:21;99456.34;;;17.74;58.75
54306;BME280;66145;45.188;5.712;2023-05-08T06:44:46;99524.94;;;18.24;58.67
54306;BME280;66145;45.188;5.712;2023-05-08T06:47:12;99541.38;;;18.38;58.68
54306;BME280;66145;45.188;5.712;2023-05-08T06:49:37;99522.00;;;18.21;58.62
54306;BME280;66145;45.188;5.712;2023-05-08T06:52:03;99472.59;;;17.84;58.74
54306;BME280;66145;45.188;5.712;2023-05-08T06:54:28;99553.38;;;18.43;58.69
54306;BME280;66145;45.188;5.712;2023-05-08T06:56:54;99522.81;;;18.21;58.56
54306;BME280;66145;45.188;5.712;2023-05-08T06:59:20;99524.75;;;18.21;58.70
54306;BME280;66145;45.188;5.712;2023-05-08T07:01:45;99555.59;;;18.41;58.66
54306;BME280;66145;45.188;5.712;2023-05-08T07:04:11;99537.44;;;18.31;58.70
54306;BME280;66145;45.188;5.712;2023-05-08T07:06:36;99496.66;;;18.01;58.74
54306;BME280;66145;45.188;5.712;2023-05-08T07:09:02;99553.78;;;18.36;58.82
54306;BME280;66145;45.188;5.712;2023-05-08T07:11:27;99564.09;;;18.39;58.92
54306;BME280;66145;45.188;5.712;2023-05-08T07:13:52;99528.69;;;18.15;58.78
54306;BME280;66145;45.188;5.712;2023-05-08T07:16:18;99525.66;;;18.16;58.85
54306;BME280;66145;45.188;5.712;2023-05-08T07:18:43;99543.81;;;18.26;58.82
54306;BME280;66145;45.188;5.712;2023-05-08T07:21:09;99555.09;;;18.38;58.83
54306;BME280;66145;45.188;5.712;2023-05-08T07:23:34;99518.25;;;18.17;58.79
54306;BME280;66145;45.188;5.712;2023-05-08T07:26:00;99529.19;;;18.17;58.82
54306;BME280;66145;45.188;5.712;2023-05-08T07:28:25;99541.88;;;18.27;58.80
54306;BME280;66145;45.188;5.712;2023-05-08T07:30:51;99549.69;;;18.33;58.88
54306;BME280;66145;45.188;5.712;2023-05-08T07:33:17;99502.22;;;17.96;58.86
54306;BME280;66145;45.188;5.712;2023-05-08T07:35:43;99543.50;;;18.28;58.81
54306;BME280;66145;45.188;5.712;2023-05-08T07:38:08;99540.25;;;18.26;58.82
54306;BME280;66145;45.188;5.712;2023-05-08T07:40:34;99548.66;;;18.29;58.98
54306;BME280;66145;45.188;5.712;2023-05-08T07:42:59;99541.28;;;18.30;58.74
54306;BME280;66145;45.188;5.712;2023-05-08T07:45:25;99483.66;;;17.93;58.83
54306;BME280;66145;45.188;5.712;2023-05-08T07:47:56;99535.38;;;18.22;58.84
54306;BME280;66145;45.188;5.712;2023-05-08T07:50:23;99549.69;;;18.33;58.79
54306;BME280;66145;45.188;5.712;2023-05-08T07:52:49;99547.56;;;18.30;58.68
54306;BME280;66145;45.188;5.712;2023-05-08T07:55:16;99556.28;;;18.32;58.80
54306;BME280;66145;45.188;5.712;2023-05-08T07:57:42;99527.69;;;18.24;58.79
54306;BME280;66145;45.188;5.712;2023-05-08T08:00:10;99539.66;;;18.29;58.69
54306;BME280;66145;45.188;5.712;2023-05-08T08:02:36;99507.31;;;18.03;58.71
54306;BME280;66145;45.188;5.712;2023-05-08T08:05:03;99445.31;;;17.65;58.70
54306;BME280;66145;45.188;5.712;2023-05-08T08:07:28;99444.19;;;17.66;58.64
54306;BME280;66145;45.188;5.712;2023-05-08T08:09:53;99478.19;;;17.93;58.68
54306;BME280;66145;45.188;5.712;2023-05-08T08:12:20;99474.03;;;17.96;58.69
54306;BME280;66145;45.188;5.712;2023-05-08T08:14:45;99516.22;;;18.22;58.55
54306;BME280;66145;45.188;5.712;2023-05-08T08:17:11;99534.78;;;18.39;58.42
54306;BME280;66145;45.188;5.712;2023-05-08T08:19:36;99503.25;;;18.28;58.57
54306;BME280;66145;45.188;5.712;2023-05-08T08:22:01;99531.53;;;18.51;58.56
54306;BME280;66145;45.188;5.712;2023-05-08T08:24:27;99538.34;;;18.54;58.35
54306;BME280;66145;45.188;5.712;2023-05-08T08:26:53;99525.06;;;18.47;58.74
54306;BME280;66145;45.188;5.712;2023-05-08T08:29:19;99534.75;;;18.53;58.29
54306;BME280;66145;45.188;5.712;2023-05-08T08:31:44;99532.34;;;18.52;59.11
54306;BME280;66145;45.188;5.712;2023-05-08T08:34:09;99525.84;;;18.48;58.47
54306;BME280;66145;45.188;5.712;2023-05-08T08:36:35;99529.28;;;18.53;58.29
54306;BME280;66145;45.188;5.712;2023-05-08T08:39:01;99530.13;;;18.54;58.68
54306;BME280;66145;45.188;5.712;2023-05-08T08:41:26;99525.75;;;18.53;58.68
54306;BME280;66145;45.188;5.712;2023-05-08T08:43:53;99523.00;;;18.53;58.66
54306;BME280;66145;45.188;5.712;2023-05-08T08:46:23;99485.69;;;18.29;59.18
54306;BME280;66145;45.188;5.712;2023-05-08T08:48:49;99517.25;;;18.41;59.21
54306;BME280;66145;45.188;5.712;2023-05-08T08:51:26;99523.34;;;18.51;59.19
54306;BME280;66145;45.188;5.712;2023-05-08T08:54:11;99517.03;;;18.51;59.53
54306;BME280;66145;45.188;5.712;2023-05-08T08:56:38;99516.94;;;18.42;59.63
54306;BME280;66145;45.188;5.712;2023-05-08T08:59:05;99487.94;;;18.27;59.62
54306;BME280;66145;45.188;5.712;2023-05-08T09:01:34;99516.00;;;18.47;59.37
54306;BME280;66145;45.188;5.712;2023-05-08T09:04:06;99495.84;;;18.29;59.71
54306;BME280;66145;45.188;5.712;2023-05-08T09:06:35;99441.50;;;17.94;59.56
54306;BME280;66145;45.188;5.712;2023-05-08T09:09:01;99507.69;;;18.38;60.31
54306;BME280;66145;45.188;5.712;2023-05-08T09:11:27;99509.84;;;18.41;59.91
54306;BME280;66145;45.188;5.712;2023-05-08T09:13:56;99488.25;;;18.26;60.02
54306;BME280;66145;45.188;5.712;2023-05-08T09:16:22;99530.53;;;18.47;60.22
54306;BME280;66145;45.188;5.712;2023-05-08T09:18:48;99521.59;;;18.42;60.34
54306;BME280;66145;45.188;5.712;2023-05-08T09:21:13;99534.38;;;18.46;60.08
54306;BME280;66145;45.188;5.712;2023-05-08T09:24:01;99541.78;;;18.46;60.39
54306;BME280;66145;45.188;5.712;2023-05-08T09:26:32;99525.66;;;18.30;60.67
54306;BME280;66145;45.188;5.712;2023-05-08T09:29:11;99542.09;;;18.44;60.32
54306;BME280;66145;45.188;5.712;2023-05-08T09:31:39;99525.78;;;18.25;60.59
54306;BME280;66145;45.188;5.712;2023-05-08T09:34:07;99517.16;;;18.32;60.82
54306;BME280;66145;45.188;5.712;2023-05-08T09:36:32;99557.72;;;18.44;60.84
54306;BME280;66145;45.188;5.712;2023-05-08T09:38:59;99525.16;;;18.28;60.53
54306;BME280;66145;45.188;5.712;2023-05-08T09:41:24;99544.63;;;18.41;60.81
54306;BME280;66145;45.188;5.712;2023-05-08T09:44:02;99509.44;;;18.20;60.83
54306;BME280;66145;45.188;5.712;2023-05-08T09:46:28;99538.22;;;18.31;60.90
54306;BME280;66145;45.188;5.712;2023-05-08T09:48:56;99531.53;;;18.23;60.81
54306;BME280;66145;45.188;5.712;2023-05-08T09:51:23;99484.44;;;17.93;60.66
54306;BME280;66145;45.188;5.712;2023-05-08T09:53:50;99554.75;;;18.40;60.83
54306;BME280;66145;45.188;5.712;2023-05-08T09:58:55;99550.28;;;18.30;60.98
54306;BME280;66145;45.188;5.712;2023-05-08T10:01:34;99556.19;;;18.37;60.96
54306;BME280;66145;45.188;5.712;2023-05-08T10:04:00;99553.53;;;18.32;61.21
54306;BME280;66145;45.188;5.712;2023-05-08T10:06:26;99537.94;;;18.19;61.04
54306;BME280;66145;45.188;5.712;2023-05-08T10:09:12;99512.38;;;18.09;60.94
54306;BME280;66145;45.188;5.712;2023-05-08T10:11:39;99518.97;;;18.08;60.68
54306;BME280;66145;45.188;5.712;2023-05-08T10:14:05;99544.03;;;18.30;60.81
54306;BME280;66145;45.188;5.712;2023-05-08T10:16:36;99550.00;;;18.32;61.13
54306;BME280;66145;45.188;5.712;2023-05-08T10:19:11;99560.03;;;18.36;61.09
54306;BME280;66145;45.188;5.712;2023-05-08T10:21:40;99516.44;;;18.12;61.11
54306;BME280;66145;45.188;5.712;2023-05-08T10:24:13;99557.91;;;18.33;61.17
54306;BME280;66145;45.188;5.712;2023-05-08T10:26:42;99551.31;;;18.34;61.21
54306;BME280;66145;45.188;5.712;2023-05-08T10:29:15;99555.38;;;18.37;60.99
54306;BME280;66145;45.188;5.712;2023-05-08T10:31:43;99552.44;;;18.33;61.11
54306;BME280;66145;45.188;5.712;2023-05-08T10:34:13;99540.78;;;18.28;61.16
54306;BME280;66145;45.188;5.712;2023-05-08T10:36:43;99514.63;;;18.07;61.44
54306;BME280;66145;45.188;5.712;2023-05-08T10:39:10;99559.34;;;18.31;61.41
54306;BME280;66145;45.188;5.712;2023-05-08T10:41:36;99540.44;;;18.29;61.44
54306;BME280;66145;45.188;5.712;2023-05-08T10:44:02;99563.91;;;18.35;61.49
54306;BME280;66145;45.188;5.712;2023-05-08T10:46:38;99488.31;;;17.92;61.26
54306;BME280;66145;45.188;5.712;2023-05-08T10:54:18;99541.78;;;18.32;61.43
54306;BME280;66145;45.188;5.712;2023-05-08T10:56:47;99492.06;;;17.97;61.24
54306;BME280;66145;45.188;5.712;2023-05-08T10:59:17;99517.97;;;18.18;61.44
54306;BME280;66145;45.188;5.712;2023-05-08T11:01:47;99536.19;;;18.37;61.41
54306;BME280;66145;45.188;5.712;2023-05-08T11:04:20;99542.00;;;18.35;61.57
54306;BME280;66145;45.188;5.712;2023-05-08T11:06:47;99531.13;;;18.30;61.21
54306;BME280;66145;45.188;5.712;2023-05-08T11:09:27;99469.88;;;17.98;61.27
54306;BME280;66145;45.188;5.712;2023-05-08T11:14:33;99494.44;;;18.17;61.62
54306;BME280;66145;45.188;5.712;2023-05-08T11:19:27;99457.59;;;17.96;61.62
54306;BME280;66145;45.188;5.712;2023-05-08T11:22:20;99509.13;;;18.35;61.66
54306;BME280;66145;45.188;5.712;2023-05-08T11:25:06;99511.88;;;18.35;61.71
54306;BME280;66145;45.188;5.712;2023-05-08T11:30:32;99512.97;;;18.34;61.66
54306;BME280;66145;45.188;5.712;2023-05-08T11:35:49;99518.78;;;18.33;61.78
54306;BME280;66145;45.188;5.712;2023-05-08T11:38:27;99520.69;;;18.32;62.02
54306;BME280;66145;45.188;5.712;2023-05-08T11:40:54;99510.47;;;18.24;61.79
54306;BME280;66145;45.188;5.712;2023-05-08T11:46:16;99525.03;;;18.33;62.01
54306;BME280;66145;45.188;5.712;2023-05-08T11:48:43;99466.13;;;17.94;62.07
54306;BME280;66145;45.188;5.712;2023-05-08T11:51:09;99451.72;;;17.88;61.97
54306;BME280;66145;45.188;5.712;2023-05-08T11:53:36;99463.66;;;17.92;62.11
54306;BME280;66145;45.188;5.712;2023-05-08T11:56:01;99511.84;;;18.21;62.26
54306;BME280;66145;45.188;5.712;2023-05-08T11:58:27;99526.47;;;18.31;62.52
54306;BME280;66145;45.188;5.712;2023-05-08T12:00:53;99479.94;;;18.03;62.46
54306;BME280;66145;45.188;5.712;2023-05-08T12:03:21;99493.72;;;18.12;62.73
54306;BME280;66145;45.188;5.712;2023-05-08T12:05:48;99510.97;;;18.26;62.81
54306;BME280;66145;45.188;5.712;2023-05-08T12:08:15;99519.88;;;18.32;62.47
54306;BME280;66145;45.188;5.712;2023-05-08T12:10:52;99509.53;;;18.29;62.26
54306;BME280;66145;45.188;5.712;2023-05-08T12:13:19;99522.63;;;18.32;62.66
54306;BME280;66145;45.188;5.712;2023-05-08T12:15:46;99510.97;;;18.26;62.57
54306;BME280;66145;45.188;5.712;2023-05-08T12:18:12;99501.63;;;18.27;62.55
54306;BME280;66145;45.188;5.712;2023-05-08T12:20:38;99508.41;;;18.30;62.49
54306;BME280;66145;45.188;5.712;2023-05-08T12:23:03;99499.78;;;18.22;62.47
54306;BME280;66145;45.188;5.712;2023-05-08T12:25:29;99494.81;;;18.24;62.25
54306;BME280;66145;45.188;5.712;2023-05-08T12:27:55;99486.22;;;18.17;62.66
54306;BME280;66145;45.188;5.712;2023-05-08T12:30:21;99469.47;;;18.05;62.65
54306;BME280;66145;45.188;5.712;2023-05-08T12:32:46;99494.81;;;18.24;62.41
54306;BME280;66145;45.188;5.712;2023-05-08T12:35:13;99473.34;;;18.04;62.04
54306;BME280;66145;45.188;5.712;2023-05-08T12:37:39;99487.34;;;18.16;62.35
54306;BME280;66145;45.188;5.712;2023-05-08T12:40:06;99502.94;;;18.30;62.57
54306;BME280;66145;45.188;5.712;2023-05-08T12:43:01;99496.34;;;18.31;62.55
54306;BME280;66145;45.188;5.712;2023-05-08T12:45:29;99501.50;;;18.32;62.68
54306;BME280;66145;45.188;5.712;2023-05-08T12:48:04;99496.34;;;18.31;62.67
54306;BME280;66145;45.188;5.712;2023-05-08T12:50:41;99488.44;;;18.29;62.56
54306;BME280;66145;45.188;5.712;2023-05-08T12:53:12;99488.16;;;18.31;62.60
54306;BME280;66145;45.188;5.712;2023-05-08T12:55:39;99473.75;;;18.25;62.14
54306;BME280;66145;45.188;5.712;2023-05-08T12:58:11;99451.84;;;18.11;62.62
54306;BME280;66145;45.188;5.712;2023-05-08T13:00:43;99493.31;;;18.32;62.45
54306;BME280;66145;45.188;5.712;2023-05-08T13:03:10;99492.00;;;18.30;62.85
54306;BME280;66145;45.188;5.712;2023-05-08T13:05:40;99385.53;;;17.72;62.68
54306;BME280;66145;45.188;5.712;2023-05-08T13:08:07;99468.38;;;18.20;62.47
54306;BME280;66145;45.188;5.712;2023-05-08T13:10:45;99455.09;;;18.13;63.09
54306;BME280;66145;45.188;5.712;2023-05-08T13:13:12;99471.53;;;18.27;62.95
54306;BME280;66145;45.188;5.712;2023-05-08T13:15:37;99470.41;;;18.28;62.65
54306;BME280;66145;45.188;5.712;2023-05-08T13:18:02;99447.59;;;18.19;62.66
54306;BME280;66145;45.188;5.712;2023-05-08T13:20:28;99348.25;;;17.62;62.75
54306;BME280;66145;45.188;5.712;2023-05-08T13:22:53;99446.78;;;18.18;62.85
54306;BME280;66145;45.188;5.712;2023-05-08T13:25:18;99448.38;;;18.33;62.85
54306;BME280;66145;45.188;5.712;2023-05-08T13:27:44;99438.94;;;18.26;62.72
54306;BME280;66145;45.188;5.712;2023-05-08T13:30:11;99349.66;;;17.74;62.48
54306;BME280;66145;45.188;5.712;2023-05-08T13:32:37;99434.81;;;18.28;63.01
54306;BME280;66145;45.188;5.712;2023-05-08T13:35:02;99382.81;;;18.00;63.19
54306;BME280;66145;45.188;5.712;2023-05-08T13:37:29;99422.53;;;18.26;62.94
54306;BME280;66145;45.188;5.712;2023-05-08T13:39:54;99380.97;;;17.96;63.23
54306;BME280;66145;45.188;5.712;2023-05-08T13:42:20;99430.81;;;18.34;63.15
54306;BME280;66145;45.188;5.712;2023-05-08T13:44:45;99437.13;;;18.35;62.82
54306;BME280;66145;45.188;5.712;2023-05-08T13:47:10;99403.88;;;18.14;63.08
54306;BME280;66145;45.188;5.712;2023-05-08T13:49:36;99426.28;;;18.30;63.12